sim
Sign-in with your pilot id or email,
or register
Callsign
Passwort

Schedule Details

Flight Number: OEO8095
Departure: Delhi Indira Gandhi International Airport (VIDP) at 20:00
Arrival: Vienna International Airport (LOWW) at 04:25

Weather Information
Getting current METAR information for VIDP 312200Z 00000KT 1200 R28/P2000 R29/P2000 FU NSC 17/11 Q1014 NOSIG
Getting current METAR information for LOWW 312150Z 15004KT 9999 FEW012 BKN026 10/09 Q1022 NOSIG

Schedule Frequency

Route Map